Lajitas, Texas
Current Conditions -  °F | °C
As of 1:35 PM on Friday 28 Nov 2014 (Local Time) from KPRS Reporting Station
Clear Clear  
Wind Chill: 65°   Ceiling: Unl
Heat Index: 65°   Visibility: 10mi
Dew Point: 28°   Wind: 0mph
Humidity: 24%   Direction: NA
Pressure: 30.18"   Gusts: NA
Location:  29.3217°N, 103.605°W
Report Text: KPRS 281935Z AUTO 00000KT 10SM CLR 19/M02 A3018 RMK AO2 T01861023
Loading
Personal Weather Stations






























Interactive Weather Map New forecast layout! Learn more

10-Day Weather Forecast

Advertisements
Track Severe Weather on mobile